createdAt,value
2023-02-20T00:01:11.920Z,4.8
2023-02-20T00:05:08.977Z,4.8
2023-02-20T00:10:08.338Z,5.0
2023-02-20T00:15:08.399Z,5.0
2023-02-20T00:20:08.508Z,5.0
2023-02-20T00:25:08.534Z,5.0
2023-02-20T00:30:08.666Z,5.0
2023-02-20T00:35:08.804Z,5.0
2023-02-20T00:40:08.888Z,5.0
2023-02-20T00:45:08.924Z,5.0
2023-02-20T00:50:08.943Z,5.0
2023-02-20T00:55:08.016Z,5.0
2023-02-20T01:00:08.072Z,5.0
2023-02-20T01:05:08.149Z,5.0
2023-02-20T01:10:08.260Z,5.0
2023-02-20T01:15:08.303Z,5.0
2023-02-20T01:20:08.383Z,5.0
2023-02-20T01:25:08.411Z,5.0
2023-02-20T01:30:08.588Z,5.3
2023-02-20T01:35:08.709Z,5.3
2023-02-20T01:40:08.769Z,5.3
2023-02-20T01:45:08.818Z,5.3
2023-02-20T01:50:08.867Z,5.3
2023-02-20T01:55:08.969Z,5.3
2023-02-20T02:00:08.052Z,5.3
2023-02-20T02:05:08.123Z,5.3
2023-02-20T02:10:08.180Z,5.0
2023-02-20T02:15:08.205Z,5.0
2023-02-20T02:20:18.255Z,5.0
2023-02-20T02:25:08.348Z,5.0
2023-02-20T02:30:08.585Z,5.0
2023-02-20T02:35:08.624Z,5.0
2023-02-20T02:40:08.770Z,5.0
2023-02-20T02:45:07.981Z,5.0
2023-02-20T02:50:18.031Z,5.0
2023-02-20T02:55:08.049Z,5.0
2023-02-20T03:00:08.085Z,5.0
2023-02-20T03:05:08.154Z,5.0
2023-02-20T03:10:08.236Z,5.0
2023-02-20T03:15:08.311Z,5.0
2023-02-20T03:20:08.386Z,5.0
2023-02-20T03:25:08.440Z,5.0
2023-02-20T03:30:08.558Z,5.0
2023-02-20T03:35:08.650Z,5.0
2023-02-20T03:40:08.741Z,5.0
2023-02-20T03:45:08.820Z,5.0
2023-02-20T03:50:18.909Z,5.0
2023-02-20T03:55:09.024Z,5.0
2023-02-20T04:00:08.181Z,5.4
2023-02-20T04:05:08.259Z,5.4
2023-02-20T04:10:08.322Z,5.4
2023-02-20T04:15:08.424Z,5.4
2023-02-20T04:20:08.463Z,5.4
2023-02-20T04:25:08.569Z,5.4
2023-02-20T04:30:08.683Z,5.4
2023-02-20T04:35:08.760Z,5.4
2023-02-20T04:40:08.827Z,5.4
2023-02-20T04:45:08.881Z,5.4
2023-02-20T04:50:08.951Z,5.5
2023-02-20T04:55:07.971Z,5.5
2023-02-20T05:00:08.057Z,5.5
2023-02-20T05:05:02.187Z,5.5
2023-02-20T05:10:02.451Z,5.5
2023-02-20T05:15:02.665Z,5.5
2023-02-20T05:20:03.000Z,5.5
2023-02-20T05:25:02.256Z,5.5
2023-02-20T05:30:02.716Z,5.5
2023-02-20T05:35:02.978Z,5.5
2023-02-20T05:40:02.261Z,5.8
2023-02-20T05:45:02.478Z,5.8
2023-02-20T05:50:02.763Z,5.9
2023-02-20T05:55:03.110Z,5.9
2023-02-20T06:00:02.294Z,5.9
2023-02-20T06:05:02.441Z,5.9
2023-02-20T06:10:02.603Z,6.0
2023-02-20T06:15:02.991Z,6.0
2023-02-20T06:20:02.184Z,6.1
2023-02-20T06:25:02.440Z,6.1
2023-02-20T06:30:02.659Z,6.1
2023-02-20T06:35:02.976Z,6.4
2023-02-20T06:40:02.166Z,6.4
2023-02-20T06:45:02.314Z,6.1
2023-02-20T06:50:02.574Z,6.4
2023-02-20T06:55:02.651Z,6.4
2023-02-20T07:00:02.873Z,6.4
2023-02-20T07:05:03.097Z,6.5
2023-02-20T07:10:02.311Z,6.5
2023-02-20T07:15:02.524Z,6.5
2023-02-20T07:20:02.777Z,6.5
2023-02-20T07:25:02.893Z,6.6
2023-02-20T07:30:03.258Z,6.6
2023-02-20T07:35:06.114Z,6.6
2023-02-20T07:40:02.685Z,6.6
2023-02-20T07:45:02.864Z,6.9
2023-02-20T07:50:03.076Z,6.9
2023-02-20T07:55:02.272Z,7.0
2023-02-20T08:00:02.495Z,7.0
2023-02-20T08:05:02.839Z,7.0
2023-02-20T08:10:02.991Z,7.0
2023-02-20T08:15:02.226Z,7.0
2023-02-20T08:20:02.490Z,7.0
2023-02-20T08:25:02.748Z,7.0
2023-02-20T08:30:03.033Z,7.1
2023-02-20T08:35:02.412Z,7.1
2023-02-20T08:40:02.575Z,7.1
2023-02-20T08:45:04.704Z,7.1
2023-02-20T08:50:02.957Z,7.1
2023-02-20T08:55:02.194Z,7.4
2023-02-20T09:00:02.366Z,7.4
2023-02-20T09:05:02.550Z,7.5
2023-02-20T09:10:02.794Z,7.5
2023-02-20T09:15:03.136Z,7.6
2023-02-20T09:20:02.422Z,7.6
2023-02-20T09:25:02.529Z,7.6
2023-02-20T09:30:02.798Z,7.6
2023-02-20T09:35:03.112Z,7.9
2023-02-20T09:40:02.266Z,7.9
2023-02-20T09:45:02.562Z,7.9
2023-02-20T09:50:02.752Z,7.9
2023-02-20T09:55:02.996Z,8.0
2023-02-20T10:00:05.280Z,8.1
2023-02-20T10:05:02.668Z,8.1
2023-02-20T10:10:02.939Z,8.1
2023-02-20T10:15:02.211Z,8.1
2023-02-20T10:20:02.467Z,8.3
2023-02-20T10:25:02.731Z,8.3
2023-02-20T10:30:02.993Z,8.3
2023-02-20T10:35:02.274Z,8.3
2023-02-20T10:40:02.446Z,8.0
2023-02-20T10:45:02.740Z,8.0
2023-02-20T10:50:12.992Z,8.0
2023-02-20T10:55:02.135Z,8.0
2023-02-20T11:00:02.620Z,7.9
2023-02-20T11:05:02.796Z,7.9
2023-02-20T11:10:03.104Z,8.0
2023-02-20T11:15:02.323Z,8.0
2023-02-20T11:20:02.517Z,8.0
2023-02-20T11:25:02.708Z,8.0
2023-02-20T11:30:03.059Z,8.1
2023-02-20T11:35:02.272Z,8.1
2023-02-20T11:40:02.590Z,8.1
2023-02-20T11:45:02.759Z,8.1
2023-02-20T11:50:18.190Z,8.3
2023-02-20T11:55:03.072Z,8.3
2023-02-20T12:00:02.528Z,8.3
2023-02-20T12:05:08.463Z,8.3
2023-02-20T12:10:02.599Z,8.3
2023-02-20T12:15:02.907Z,8.3
2023-02-20T12:20:02.214Z,8.3
2023-02-20T12:25:02.502Z,8.3
2023-02-20T12:30:02.672Z,8.3
2023-02-20T12:35:02.957Z,8.3
2023-02-20T12:40:02.135Z,8.3
2023-02-20T12:45:02.351Z,8.3
2023-02-20T12:50:02.648Z,8.3
2023-02-20T12:55:02.908Z,8.3
2023-02-20T13:00:03.097Z,8.3
2023-02-20T13:05:02.368Z,8.1
2023-02-20T13:10:12.531Z,8.1
2023-02-20T13:15:02.847Z,8.1
2023-02-20T13:20:03.106Z,8.1
2023-02-20T13:25:02.412Z,8.1
2023-02-20T13:30:02.751Z,8.3
2023-02-20T13:35:02.976Z,8.3
2023-02-20T13:40:02.181Z,8.5
2023-02-20T13:45:02.322Z,8.5
2023-02-20T13:50:02.528Z,8.5
2023-02-20T13:55:02.784Z,8.5
2023-02-20T14:00:02.962Z,8.6
2023-02-20T14:05:02.392Z,8.6
2023-02-20T14:10:02.668Z,8.6
2023-02-20T14:15:02.913Z,8.6
2023-02-20T14:20:13.858Z,8.8
2023-02-20T14:25:03.014Z,8.8
2023-02-20T14:30:02.271Z,8.8
2023-02-20T14:35:02.561Z,8.8
2023-02-20T14:40:08.080Z,8.8
2023-02-20T14:45:11.855Z,8.8
2023-02-20T14:50:03.085Z,8.8
2023-02-20T14:55:02.301Z,8.8
2023-02-20T15:00:02.500Z,9.0
2023-02-20T15:05:02.729Z,9.0
2023-02-20T15:10:03.011Z,9.0
2023-02-20T15:15:02.234Z,9.0
2023-02-20T15:20:02.532Z,9.0
2023-02-20T15:25:02.753Z,9.0
2023-02-20T15:30:03.182Z,8.8
2023-02-20T15:35:02.440Z,8.8
2023-02-20T15:40:02.782Z,9.0
2023-02-20T15:45:03.118Z,9.0
2023-02-20T15:50:02.264Z,8.8
2023-02-20T15:55:02.560Z,8.8
2023-02-20T16:00:02.864Z,8.8
2023-02-20T16:05:02.584Z,8.8
2023-02-20T16:10:02.825Z,8.8
2023-02-20T16:15:03.037Z,8.8
2023-02-20T16:20:02.312Z,8.8
2023-02-20T16:25:02.512Z,8.8
2023-02-20T16:30:02.824Z,8.6
2023-02-20T16:35:03.160Z,8.6
2023-02-20T16:40:02.444Z,8.6
2023-02-20T16:45:02.618Z,8.6
2023-02-20T16:50:02.859Z,8.6
2023-02-20T16:55:03.104Z,8.6
2023-02-20T17:00:02.303Z,8.6
2023-02-20T17:05:02.717Z,8.6
2023-02-20T17:10:03.078Z,8.6
2023-02-20T17:15:02.345Z,8.6
2023-02-20T17:20:02.620Z,8.6
2023-02-20T17:25:02.772Z,8.6
2023-02-20T17:30:03.086Z,8.6
2023-02-20T17:35:02.236Z,8.6
2023-02-20T17:40:02.367Z,8.6
2023-02-20T17:45:02.810Z,8.6
2023-02-20T17:50:03.093Z,8.8
2023-02-20T17:55:02.283Z,8.8
2023-02-20T18:00:02.626Z,8.6
2023-02-20T18:05:02.849Z,8.6
2023-02-20T18:10:03.208Z,8.6
2023-02-20T18:15:02.374Z,8.6
2023-02-20T18:20:02.580Z,8.6
2023-02-20T18:25:02.790Z,8.6
2023-02-20T18:30:03.300Z,8.6
2023-02-20T18:35:02.433Z,8.6
2023-02-20T18:40:02.682Z,8.6
2023-02-20T18:45:03.046Z,8.6
2023-02-20T18:50:02.279Z,8.8
2023-02-20T18:55:02.496Z,8.8
2023-02-20T19:00:02.707Z,8.6
2023-02-20T19:05:03.044Z,8.6
2023-02-20T19:10:02.309Z,8.6
2023-02-20T19:15:04.060Z,8.6
2023-02-20T19:20:02.243Z,8.8
2023-02-20T19:25:02.590Z,8.8
2023-02-20T19:30:02.923Z,8.6
2023-02-20T19:35:03.130Z,8.6
2023-02-20T19:40:02.350Z,8.6
2023-02-20T19:45:02.639Z,8.6
2023-02-20T19:50:02.945Z,8.8
2023-02-20T19:55:02.178Z,8.8
2023-02-20T20:00:02.406Z,8.8
2023-02-20T20:05:02.754Z,8.8
2023-02-20T20:10:02.948Z,8.8
2023-02-20T20:15:04.319Z,8.8
2023-02-20T20:20:02.750Z,8.8
2023-02-20T20:25:03.068Z,8.8
2023-02-20T20:30:02.230Z,8.8
2023-02-20T20:35:02.415Z,8.8
2023-02-20T20:40:02.909Z,8.8
2023-02-20T20:45:03.072Z,8.8
2023-02-20T20:50:02.226Z,8.8
2023-02-20T20:55:02.495Z,8.8
2023-02-20T21:00:08.672Z,8.8
2023-02-20T21:05:10.580Z,8.8
2023-02-20T21:10:02.565Z,8.8
2023-02-20T21:15:02.777Z,8.8
2023-02-20T21:20:03.055Z,8.8
2023-02-20T21:25:02.244Z,8.8
2023-02-20T21:30:02.610Z,8.8
2023-02-20T21:35:02.820Z,8.8
2023-02-20T21:40:03.081Z,8.8
2023-02-20T21:45:02.220Z,8.8
2023-02-20T21:50:02.432Z,8.8
2023-02-20T21:55:02.621Z,8.8
2023-02-20T22:00:02.880Z,8.8
2023-02-20T22:05:15.926Z,8.8
2023-02-20T22:10:07.996Z,8.8
2023-02-20T22:15:08.142Z,8.8
2023-02-20T22:20:16.174Z,8.6
2023-02-20T22:25:08.260Z,8.6
2023-02-20T22:30:08.372Z,8.8
2023-02-20T22:35:11.987Z,8.8
2023-02-20T22:40:08.421Z,8.6
2023-02-20T22:45:08.502Z,8.6
2023-02-20T22:50:08.540Z,8.6
2023-02-20T22:55:08.744Z,8.6
2023-02-20T23:00:08.930Z,8.6
2023-02-20T23:05:09.020Z,8.6
2023-02-20T23:10:08.095Z,8.6
2023-02-20T23:15:08.141Z,8.6
2023-02-20T23:20:08.220Z,8.6
2023-02-20T23:25:08.289Z,8.6
2023-02-20T23:30:08.432Z,8.6
2023-02-20T23:35:08.516Z,8.6
2023-02-20T23:40:08.557Z,8.6
2023-02-20T23:45:08.791Z,8.6
2023-02-20T23:50:08.840Z,8.6
2023-02-20T23:55:08.876Z,8.6
